Lawrenceville, Pennsylvania
Current Conditions -  °F | °C
As of 3:53 AM on Friday 24 Oct 2014 (Local Time) from KELM Reporting Station
Overcast Overcast  
Wind Chill: 50°   Ceiling: 1200
Heat Index: 50°   Visibility: 9mi
Dew Point: 47°   Wind: 9mph
Humidity: 89%   Direction: 30°NNE
Pressure: 29.95"   Gusts: NA
Location:  42°N, 77.13°W
Report Text: KELM 240753Z AUTO 03008KT 9SM OVC012 10/08 A2995 RMK AO2 SLP144 T01000083
Loading
Personal Weather Stations






























Interactive Weather Map
Tropical Storm Tracking
New forecast layout! Learn more

10-Day Weather Forecast

Advertisements
Track Severe Weather on mobile